createdAt,value
2023-01-17T00:00:53.882Z,4.50
2023-01-17T00:04:14.338Z,4.30
2023-01-17T00:07:35.453Z,4.70
2023-01-17T00:10:38.497Z,4.60
2023-01-17T00:13:39.969Z,4.20
2023-01-17T00:16:41.438Z,4.60
2023-01-17T00:20:01.576Z,4.40
2023-01-17T00:23:25.329Z,4.30
2023-01-17T00:26:27.075Z,4.40
2023-01-17T00:29:28.523Z,4.30
2023-01-17T00:32:29.972Z,4.20
2023-01-17T00:35:32.092Z,4.10
2023-01-17T00:38:35.170Z,4.40
2023-01-17T00:41:36.649Z,4.20
2023-01-17T00:44:56.908Z,4.20
2023-01-17T00:48:16.966Z,4.00
2023-01-17T00:51:37.468Z,4.30
2023-01-17T00:54:57.554Z,4.00
2023-01-17T00:58:17.617Z,4.40
2023-01-17T01:01:37.725Z,4.20
2023-01-17T01:04:58.049Z,4.40
2023-01-17T01:08:18.076Z,3.90
2023-01-17T01:11:39.230Z,4.20
2023-01-17T01:14:59.433Z,4.30
2023-01-17T01:18:26.503Z,3.90
2023-01-17T01:21:46.604Z,4.20
2023-01-17T01:25:06.748Z,3.80
2023-01-17T01:28:31.438Z,3.90
2023-01-17T01:31:51.533Z,3.50
2023-01-17T01:34:53.029Z,3.70
2023-01-17T01:37:54.558Z,3.80
2023-01-17T01:40:56.776Z,3.70
2023-01-17T01:43:58.300Z,3.60
2023-01-17T01:46:59.884Z,4.20
2023-01-17T01:50:03.648Z,3.30
2023-01-17T01:53:06.141Z,3.70
2023-01-17T01:56:09.558Z,4.00
2023-01-17T01:59:13.102Z,4.00
2023-01-17T02:02:15.286Z,3.90
2023-01-17T02:05:17.636Z,4.40
2023-01-17T02:08:20.407Z,4.20
2023-01-17T02:11:22.158Z,3.90
2023-01-17T02:14:23.629Z,3.80
2023-01-17T02:17:28.111Z,3.80
2023-01-17T02:20:48.440Z,4.00
2023-01-17T02:24:02.167Z,3.80
2023-01-17T02:27:03.792Z,3.70
2023-01-17T02:30:23.694Z,3.70
2023-01-17T02:33:45.676Z,3.80
2023-01-17T02:37:00.772Z,3.50
2023-01-17T02:40:05.044Z,3.10
2023-01-17T02:43:09.288Z,3.30
2023-01-17T02:46:10.972Z,2.70
2023-01-17T02:49:12.996Z,2.50
2023-01-17T02:52:33.251Z,2.30
2023-01-17T02:55:34.749Z,2.60
2023-01-17T02:58:51.476Z,2.40
2023-01-17T03:01:53.877Z,2.20
2023-01-17T03:05:00.398Z,2.20
2023-01-17T03:08:05.501Z,2.10
2023-01-17T03:11:10.791Z,2.30
2023-01-17T03:14:12.430Z,2.40
2023-01-17T03:17:13.922Z,2.30
2023-01-17T03:20:15.544Z,2.00
2023-01-17T03:23:17.364Z,2.40
2023-01-17T03:26:18.979Z,2.20
2023-01-17T03:29:20.450Z,2.30
2023-01-17T03:32:21.912Z,2.60
2023-01-17T03:35:23.440Z,2.70
2023-01-17T03:38:25.702Z,2.40
2023-01-17T03:41:27.157Z,2.60
2023-01-17T03:44:28.649Z,3.10
2023-01-17T03:47:30.171Z,4.40
2023-01-17T03:50:31.657Z,3.00
2023-01-17T03:53:33.121Z,2.80
2023-01-17T03:56:34.611Z,3.00
2023-01-17T03:59:36.141Z,2.70
2023-01-17T04:02:37.797Z,2.90
2023-01-17T04:05:39.353Z,2.70
2023-01-17T04:08:41.503Z,3.10
2023-01-17T04:11:42.979Z,3.00
2023-01-17T04:14:44.484Z,3.20
2023-01-17T04:17:46.138Z,3.00
2023-01-17T04:20:47.618Z,2.90
2023-01-17T04:23:49.211Z,2.90
2023-01-17T04:26:50.683Z,3.00
2023-01-17T04:29:52.212Z,2.90
2023-01-17T04:32:53.878Z,4.80
2023-01-17T04:35:55.415Z,3.00
2023-01-17T04:38:56.904Z,2.80
2023-01-17T04:41:58.449Z,2.90
2023-01-17T04:44:59.917Z,2.80
2023-01-17T04:48:05.363Z,2.90
2023-01-17T04:51:06.872Z,3.00
2023-01-17T04:54:08.353Z,2.90
2023-01-17T04:57:10.037Z,3.00
2023-01-17T05:00:11.773Z,2.70
2023-01-17T05:03:13.256Z,2.90
2023-01-17T05:06:14.861Z,3.40
2023-01-17T05:09:16.313Z,3.00
2023-01-17T05:12:17.854Z,3.00
2023-01-17T05:15:19.310Z,2.80
2023-01-17T05:18:20.820Z,3.00
2023-01-17T05:21:22.387Z,4.00
2023-01-17T05:24:23.882Z,2.90
2023-01-17T05:27:26.025Z,3.90
2023-01-17T05:30:28.848Z,2.80
2023-01-17T05:33:30.344Z,2.80
2023-01-17T05:36:31.896Z,3.00
2023-01-17T05:39:33.345Z,2.70
2023-01-17T05:42:35.051Z,2.50
2023-01-17T05:45:36.784Z,2.40
2023-01-17T05:48:38.240Z,2.70
2023-01-17T05:51:39.754Z,2.80
2023-01-17T05:54:41.237Z,2.70
2023-01-17T05:57:42.705Z,2.70
2023-01-17T06:00:46.131Z,2.60
2023-01-17T06:03:47.692Z,3.00
2023-01-17T06:06:49.206Z,3.90
2023-01-17T06:09:50.656Z,2.40
2023-01-17T06:13:00.196Z,2.80
2023-01-17T06:16:03.828Z,2.80
2023-01-17T06:19:05.404Z,2.60
2023-01-17T06:22:07.001Z,2.90
2023-01-17T06:28:19.467Z,3.30
2023-01-17T06:31:21.018Z,2.70
2023-01-17T06:34:22.588Z,3.10
2023-01-17T06:37:24.258Z,3.00
2023-01-17T06:40:26.397Z,3.10
2023-01-17T06:43:28.438Z,3.80
2023-01-17T06:46:29.992Z,2.90
2023-01-17T06:49:31.535Z,3.30
2023-01-17T06:52:33.018Z,3.00
2023-01-17T06:55:35.097Z,2.80
2023-01-17T06:58:36.597Z,2.70
2023-01-17T07:01:38.504Z,2.60
2023-01-17T07:04:40.279Z,2.60
2023-01-17T07:07:41.772Z,2.80
2023-01-17T07:10:44.488Z,2.80
2023-01-17T07:13:46.032Z,2.50
2023-01-17T07:16:49.949Z,2.80
2023-01-17T07:19:51.404Z,2.80
2023-01-17T07:22:52.871Z,2.90
2023-01-17T07:25:55.323Z,2.70
2023-01-17T07:28:56.811Z,2.90
2023-01-17T07:31:58.268Z,2.90
2023-01-17T07:34:59.754Z,2.90
2023-01-17T07:38:01.271Z,3.00
2023-01-17T07:41:03.044Z,2.90
2023-01-17T07:44:04.826Z,3.10
2023-01-17T07:47:06.395Z,3.20
2023-01-17T07:50:08.269Z,4.50
2023-01-17T07:53:10.189Z,3.00
2023-01-17T07:56:11.661Z,3.20
2023-01-17T07:59:13.509Z,2.70
2023-01-17T08:02:17.619Z,3.20
2023-01-17T08:05:19.147Z,3.00
2023-01-17T08:08:20.695Z,2.70
2023-01-17T08:11:23.328Z,3.40
2023-01-17T08:14:24.923Z,3.00
2023-01-17T08:17:26.459Z,3.20
2023-01-17T08:20:28.362Z,3.30
2023-01-17T08:23:31.164Z,3.20
2023-01-17T08:26:32.661Z,3.30
2023-01-17T08:29:34.268Z,3.10
2023-01-17T08:32:35.826Z,3.10
2023-01-17T08:35:37.396Z,3.20
2023-01-17T08:38:38.855Z,3.10
2023-01-17T08:41:40.650Z,3.20
2023-01-17T08:44:43.461Z,3.00
2023-01-17T08:47:44.966Z,2.80
2023-01-17T08:50:46.445Z,2.90
2023-01-17T08:53:48.461Z,2.80
2023-01-17T08:56:51.149Z,2.80
2023-01-17T08:59:52.677Z,2.70
2023-01-17T09:02:54.290Z,2.80
2023-01-17T09:06:02.689Z,2.80
2023-01-17T09:09:05.100Z,2.80
2023-01-17T09:12:07.062Z,2.70
2023-01-17T09:15:08.811Z,2.90
2023-01-17T09:18:10.285Z,3.00
2023-01-17T09:21:15.717Z,3.10
2023-01-17T09:24:17.189Z,2.90
2023-01-17T09:27:18.877Z,3.30
2023-01-17T09:30:20.722Z,3.10
2023-01-17T09:33:24.292Z,3.20
2023-01-17T09:36:33.688Z,2.70
2023-01-17T09:39:35.163Z,3.00
2023-01-17T09:42:39.295Z,2.80
2023-01-17T09:45:40.779Z,1.80
2023-01-17T09:48:42.849Z,4.10
2023-01-17T09:51:44.867Z,3.10
2023-01-17T09:54:47.993Z,3.10
2023-01-17T09:57:57.493Z,3.50
2023-01-17T10:01:17.950Z,2.80
2023-01-17T10:04:28.860Z,2.80
2023-01-17T10:07:56.975Z,3.10
2023-01-17T10:11:13.866Z,3.30
2023-01-17T10:14:16.036Z,3.30
2023-01-17T10:17:20.621Z,3.30
2023-01-17T10:20:25.729Z,3.30
2023-01-17T10:23:30.268Z,3.80
2023-01-17T10:26:32.482Z,3.50
2023-01-17T10:29:34.787Z,3.40
2023-01-17T10:32:42.268Z,3.40
2023-01-17T10:36:04.090Z,4.80
2023-01-17T10:39:19.156Z,3.20
2023-01-17T10:42:23.043Z,3.30
2023-01-17T10:45:28.293Z,3.40
2023-01-17T10:48:29.783Z,5.80
2023-01-17T10:51:51.365Z,3.80
2023-01-17T10:55:04.912Z,3.60
2023-01-17T10:58:10.390Z,3.70
2023-01-17T11:01:17.532Z,3.70
2023-01-17T11:04:21.748Z,4.10
2023-01-17T11:07:27.287Z,4.10
2023-01-17T11:10:48.113Z,4.00
2023-01-17T11:13:50.528Z,4.10
2023-01-17T11:16:59.566Z,4.10
2023-01-17T11:20:16.914Z,4.20
2023-01-17T11:23:23.417Z,4.20
2023-01-17T11:26:28.063Z,4.50
2023-01-17T11:29:39.685Z,4.60
2023-01-17T11:32:53.163Z,4.50
2023-01-17T11:35:54.674Z,4.70
2023-01-17T11:39:02.693Z,4.60
2023-01-17T11:42:05.877Z,4.60
2023-01-17T11:45:24.094Z,4.80
2023-01-17T11:48:25.622Z,4.80
2023-01-17T11:51:29.354Z,6.70
2023-01-17T11:54:38.289Z,4.80
2023-01-17T11:57:40.031Z,5.10
2023-01-17T12:00:45.885Z,5.00
2023-01-17T12:03:50.474Z,5.10
2023-01-17T12:07:10.795Z,5.00
2023-01-17T12:10:16.975Z,5.30
2023-01-17T12:13:55.903Z,4.90
2023-01-17T12:17:13.867Z,5.00
2023-01-17T12:20:21.905Z,4.80
2023-01-17T12:23:34.260Z,4.90
2023-01-17T12:26:42.054Z,4.90
2023-01-17T12:29:47.722Z,5.00
2023-01-17T12:33:12.597Z,4.90
2023-01-17T12:36:34.309Z,5.00
2023-01-17T12:39:39.566Z,5.70
2023-01-17T12:42:43.884Z,5.40
2023-01-17T12:45:46.821Z,5.20
2023-01-17T12:48:54.249Z,5.40
2023-01-17T12:51:58.921Z,5.80
2023-01-17T12:55:03.278Z,5.70
2023-01-17T12:58:07.024Z,5.90
2023-01-17T13:01:15.783Z,6.30
2023-01-17T13:04:21.085Z,6.10
2023-01-17T13:07:22.554Z,5.90
2023-01-17T13:10:24.160Z,6.00
2023-01-17T13:13:26.979Z,5.90
2023-01-17T13:16:37.508Z,6.10
2023-01-17T13:19:42.107Z,5.70
2023-01-17T13:22:44.107Z,5.60
2023-01-17T13:25:48.598Z,5.20
2023-01-17T13:29:08.426Z,5.40
2023-01-17T13:32:13.061Z,5.70
2023-01-17T13:35:44.151Z,5.50
2023-01-17T13:39:00.621Z,5.90
2023-01-17T13:42:21.008Z,5.50
2023-01-17T13:45:25.592Z,5.30
2023-01-17T13:48:28.539Z,5.40
2023-01-17T13:51:49.974Z,5.70
2023-01-17T13:54:52.586Z,7.40
2023-01-17T13:57:54.043Z,5.70
2023-01-17T14:00:55.561Z,5.20
2023-01-17T14:04:05.131Z,5.20
2023-01-17T14:07:16.754Z,5.60
2023-01-17T14:10:20.961Z,5.50
2023-01-17T14:13:28.494Z,5.40
2023-01-17T14:16:31.248Z,5.30
2023-01-17T14:19:36.228Z,5.00
2023-01-17T14:22:39.345Z,5.20
2023-01-17T14:25:41.483Z,4.70
2023-01-17T14:28:43.005Z,4.90
2023-01-17T14:31:44.532Z,5.00
2023-01-17T14:34:47.042Z,5.10
2023-01-17T14:37:52.617Z,4.50
2023-01-17T14:40:55.184Z,5.10
2023-01-17T14:43:59.681Z,4.90
2023-01-17T14:47:01.171Z,4.60
2023-01-17T14:50:19.144Z,4.80
2023-01-17T14:53:21.988Z,4.40
2023-01-17T14:56:24.582Z,4.40
2023-01-17T14:59:26.074Z,4.60
2023-01-17T15:02:27.749Z,4.30
2023-01-17T15:05:30.122Z,4.40
2023-01-17T15:08:33.766Z,4.40
2023-01-17T15:11:36.052Z,4.30
2023-01-17T15:14:39.432Z,3.70
2023-01-17T15:17:40.912Z,4.20
2023-01-17T15:20:43.792Z,4.10
2023-01-17T15:23:46.969Z,4.00
2023-01-17T15:26:48.866Z,4.10
2023-01-17T15:29:50.585Z,3.70
2023-01-17T15:32:52.937Z,4.00
2023-01-17T15:36:14.759Z,3.80
2023-01-17T15:39:24.265Z,3.80
2023-01-17T15:42:27.625Z,3.90
2023-01-17T15:45:30.341Z,3.60
2023-01-17T15:48:40.870Z,5.90
2023-01-17T15:51:46.737Z,3.60
2023-01-17T15:54:53.354Z,3.30
2023-01-17T15:57:54.984Z,3.50
2023-01-17T16:00:56.740Z,3.40
2023-01-17T16:03:58.519Z,3.80
2023-01-17T16:07:29.687Z,3.70
2023-01-17T16:10:32.373Z,3.40
2023-01-17T16:13:36.145Z,3.70
2023-01-17T16:16:37.657Z,3.30
2023-01-17T16:19:39.221Z,3.70
2023-01-17T16:22:41.101Z,3.30
2023-01-17T16:25:44.333Z,3.60
2023-01-17T16:28:45.928Z,3.90
2023-01-17T16:31:47.415Z,3.50
2023-01-17T16:34:48.870Z,4.70
2023-01-17T16:37:57.855Z,4.00
2023-01-17T16:40:59.318Z,4.10
2023-01-17T16:44:01.837Z,3.60
2023-01-17T16:47:03.358Z,3.60
2023-01-17T16:50:05.410Z,3.50
2023-01-17T16:53:07.136Z,3.70
2023-01-17T16:56:11.696Z,4.10
2023-01-17T16:59:13.180Z,3.90
2023-01-17T17:02:15.565Z,5.90
2023-01-17T17:05:17.127Z,3.50
2023-01-17T17:08:18.594Z,3.50
2023-01-17T17:11:22.061Z,3.50
2023-01-17T17:14:23.547Z,3.30
2023-01-17T17:17:25.031Z,3.10
2023-01-17T17:20:26.496Z,3.40
2023-01-17T17:23:27.956Z,3.20
2023-01-17T17:26:31.002Z,2.70
2023-01-17T17:29:32.610Z,3.00
2023-01-17T17:32:34.065Z,2.70
2023-01-17T17:35:35.777Z,2.50
2023-01-17T17:38:50.612Z,3.30
2023-01-17T17:41:52.167Z,2.80
2023-01-17T17:44:53.703Z,2.50
2023-01-17T17:47:55.273Z,2.50
2023-01-17T17:50:59.952Z,2.70
2023-01-17T17:54:03.183Z,2.60
2023-01-17T17:57:04.698Z,2.50
2023-01-17T18:00:07.169Z,2.30
2023-01-17T18:03:08.739Z,2.50
2023-01-17T18:06:11.358Z,2.60
2023-01-17T18:09:13.186Z,2.40
2023-01-17T18:12:14.673Z,2.30
2023-01-17T18:15:16.153Z,2.40
2023-01-17T18:18:17.709Z,2.40
2023-01-17T18:21:23.538Z,1.90
2023-01-17T18:24:25.226Z,1.90
2023-01-17T18:27:28.196Z,2.20
2023-01-17T18:30:34.194Z,3.20
2023-01-17T18:33:37.976Z,4.20
2023-01-17T18:36:48.758Z,2.40
2023-01-17T18:39:50.395Z,1.30
2023-01-17T18:42:52.002Z,4.00
2023-01-17T18:45:53.758Z,1.90
2023-01-17T18:48:58.721Z,1.60
2023-01-17T18:52:00.275Z,2.00
2023-01-17T18:55:01.906Z,1.60
2023-01-17T18:58:03.421Z,2.50
2023-01-17T19:01:10.377Z,1.30
2023-01-17T19:04:12.740Z,1.70
2023-01-17T19:07:14.653Z,1.60
2023-01-17T19:10:16.285Z,2.40
2023-01-17T19:13:17.861Z,1.30
2023-01-17T19:16:27.975Z,1.70
2023-01-17T19:19:29.645Z,1.60
2023-01-17T19:22:34.300Z,1.70
2023-01-17T19:25:36.380Z,2.60
2023-01-17T19:28:41.994Z,2.90
2023-01-17T19:31:43.798Z,-0.50
2023-01-17T19:34:46.775Z,1.40
2023-01-17T19:37:49.576Z,3.00
2023-01-17T19:40:51.535Z,1.50
2023-01-17T19:43:54.213Z,1.20
2023-01-17T19:46:56.509Z,1.00
2023-01-17T19:49:59.427Z,0.90
2023-01-17T19:53:00.978Z,3.50
2023-01-17T19:56:10.621Z,1.40
2023-01-17T19:59:13.927Z,1.80
2023-01-17T20:02:15.810Z,1.30
2023-01-17T20:05:17.591Z,3.80
2023-01-17T20:08:19.430Z,2.30
2023-01-17T20:11:22.386Z,1.20
2023-01-17T20:14:24.119Z,1.00
2023-01-17T20:17:27.025Z,2.70
2023-01-17T20:20:32.365Z,3.10
2023-01-17T20:23:36.707Z,1.00
2023-01-17T20:26:45.564Z,2.70
2023-01-17T20:29:49.156Z,2.50
2023-01-17T20:36:56.950Z,0.90
2023-01-17T20:44:15.654Z,1.60
2023-01-17T20:51:48.866Z,1.50
2023-01-17T20:54:51.630Z,1.40
2023-01-17T20:57:53.145Z,1.50
2023-01-17T21:00:55.770Z,1.30
2023-01-17T21:03:57.393Z,1.30
2023-01-17T21:06:58.935Z,1.30
2023-01-17T21:10:00.421Z,1.40
2023-01-17T21:13:02.299Z,1.10
2023-01-17T21:16:03.810Z,1.30
2023-01-17T21:19:05.579Z,1.60
2023-01-17T21:22:07.394Z,1.40
2023-01-17T21:25:09.876Z,1.40
2023-01-17T21:28:12.440Z,1.00
2023-01-17T21:31:24.307Z,3.40
2023-01-17T21:34:25.917Z,1.40
2023-01-17T21:37:27.455Z,1.50
2023-01-17T21:40:28.958Z,1.40
2023-01-17T21:43:30.424Z,1.40
2023-01-17T21:46:31.981Z,1.30
2023-01-17T21:49:33.523Z,1.70
2023-01-17T21:52:35.869Z,1.30
2023-01-17T21:55:56.275Z,1.40
2023-01-17T21:58:58.525Z,1.40
2023-01-17T22:02:00.336Z,1.40
2023-01-17T22:05:02.288Z,0.80
2023-01-17T22:08:14.201Z,0.60
2023-01-17T22:11:16.917Z,1.10
2023-01-17T22:14:19.463Z,1.40
2023-01-17T22:17:20.998Z,1.20
2023-01-17T22:20:23.206Z,1.20
2023-01-17T22:23:25.931Z,1.30
2023-01-17T22:26:29.309Z,1.20
2023-01-17T22:29:32.301Z,1.30
2023-01-17T22:32:33.788Z,1.00
2023-01-17T22:35:35.288Z,1.30
2023-01-17T22:38:37.154Z,1.20
2023-01-17T22:41:38.666Z,1.10
2023-01-17T22:44:40.158Z,1.00
2023-01-17T22:47:41.648Z,1.10
2023-01-17T22:50:43.169Z,0.70
2023-01-17T22:53:45.661Z,1.00
2023-01-17T22:56:48.494Z,1.10
2023-01-17T22:59:50.304Z,1.00
2023-01-17T23:02:51.819Z,1.20
2023-01-17T23:05:53.312Z,1.10
2023-01-17T23:08:55.845Z,1.00
2023-01-17T23:11:57.400Z,1.00
2023-01-17T23:15:17.634Z,0.90
2023-01-17T23:18:37.586Z,1.00
2023-01-17T23:21:57.652Z,0.80
2023-01-17T23:25:00.880Z,0.90
2023-01-17T23:28:12.107Z,0.70
2023-01-17T23:31:13.724Z,0.90
2023-01-17T23:34:15.276Z,0.80
2023-01-17T23:37:16.797Z,0.90
2023-01-17T23:40:18.346Z,0.90
2023-01-17T23:43:22.854Z,0.60
2023-01-17T23:46:25.230Z,0.90
2023-01-17T23:49:27.439Z,0.90
2023-01-17T23:52:28.916Z,0.20
2023-01-17T23:55:30.398Z,1.00
2023-01-17T23:58:32.286Z,0.90
